createdAt,value
2022-08-16T00:00:03.575Z,0.00
2022-08-16T00:00:54.536Z,0.00
2022-08-16T00:01:53.502Z,0.00
2022-08-16T00:02:53.466Z,0.00
2022-08-16T00:03:53.457Z,0.00
2022-08-16T00:04:53.540Z,0.00
2022-08-16T00:05:57.609Z,0.00
2022-08-16T00:06:53.419Z,0.00
2022-08-16T00:07:56.283Z,0.00
2022-08-16T00:08:53.388Z,0.00
2022-08-16T00:09:53.378Z,0.00
2022-08-16T00:10:53.546Z,0.00
2022-08-16T00:11:55.419Z,0.00
2022-08-16T00:12:53.349Z,0.00
2022-08-16T00:13:55.627Z,0.00
2022-08-16T00:14:56.847Z,0.00
2022-08-16T00:15:54.178Z,0.00
2022-08-16T00:17:01.537Z,0.00
2022-08-16T00:17:56.873Z,0.00
2022-08-16T00:18:53.259Z,0.00
2022-08-16T00:19:53.418Z,0.00
2022-08-16T00:20:53.239Z,0.00
2022-08-16T00:21:57.091Z,0.00
2022-08-16T00:22:54.200Z,0.00
2022-08-16T00:23:53.201Z,0.00
2022-08-16T00:24:53.178Z,0.00
2022-08-16T00:26:35.816Z,0.00
2022-08-16T00:26:54.531Z,0.00
2022-08-16T00:27:53.185Z,0.00
2022-08-16T00:28:54.523Z,0.00
2022-08-16T00:30:08.278Z,0.00
2022-08-16T00:30:54.101Z,0.00
2022-08-16T00:32:00.497Z,0.00
2022-08-16T00:32:57.024Z,0.00
2022-08-16T00:33:53.061Z,0.00
2022-08-16T00:34:54.355Z,0.00
2022-08-16T00:35:53.053Z,0.00
2022-08-16T00:36:55.908Z,0.00
2022-08-16T00:37:57.806Z,0.00
2022-08-16T00:38:53.995Z,0.00
2022-08-16T00:39:57.661Z,0.00
2022-08-16T00:40:54.132Z,0.00
2022-08-16T00:41:52.974Z,0.00
2022-08-16T00:42:54.879Z,0.00
2022-08-16T00:43:52.936Z,0.00
2022-08-16T00:44:52.926Z,0.00
2022-08-16T00:45:58.081Z,0.00
2022-08-16T00:47:02.438Z,0.00
2022-08-16T00:47:53.954Z,0.00
2022-08-16T00:48:52.874Z,0.00
2022-08-16T00:49:56.753Z,0.00
2022-08-16T00:50:55.542Z,0.00
2022-08-16T00:51:54.831Z,0.00
2022-08-16T00:52:53.521Z,0.00
2022-08-16T00:53:52.818Z,0.00
2022-08-16T00:54:52.803Z,0.00
2022-08-16T00:55:52.786Z,0.00
2022-08-16T00:56:58.573Z,0.00
2022-08-16T00:57:59.854Z,0.00
2022-08-16T00:58:53.880Z,0.00
2022-08-16T00:59:58.798Z,0.00
2022-08-16T01:00:54.362Z,0.00
2022-08-16T01:01:52.706Z,0.00
2022-08-16T01:02:52.698Z,0.00
2022-08-16T01:03:52.677Z,0.00
2022-08-16T01:05:11.191Z,0.00
2022-08-16T01:05:53.660Z,0.00
2022-08-16T01:07:01.152Z,0.00
2022-08-16T01:07:53.764Z,0.00
2022-08-16T01:08:52.608Z,0.00
2022-08-16T01:09:52.781Z,0.00
2022-08-16T01:10:52.577Z,0.00
2022-08-16T01:11:54.177Z,0.00
2022-08-16T01:12:52.561Z,0.00
2022-08-16T01:13:53.067Z,0.00
2022-08-16T01:14:53.346Z,0.00
2022-08-16T01:15:53.603Z,0.00
2022-08-16T01:16:52.509Z,0.00
2022-08-16T01:17:56.061Z,0.00
2022-08-16T01:18:52.479Z,0.00
2022-08-16T01:19:52.480Z,0.00
2022-08-16T01:20:52.938Z,0.00
2022-08-16T01:21:52.441Z,0.00
2022-08-16T01:22:52.732Z,0.00
2022-08-16T01:23:58.664Z,0.00
2022-08-16T01:24:55.681Z,0.00
2022-08-16T01:26:00.158Z,0.00
2022-08-16T01:26:53.371Z,0.00
2022-08-16T01:27:52.391Z,0.00
2022-08-16T01:28:52.354Z,0.00
2022-08-16T01:29:57.988Z,0.00
2022-08-16T01:30:53.330Z,0.00
2022-08-16T01:31:52.337Z,0.00
2022-08-16T01:32:56.413Z,0.00
2022-08-16T01:33:53.301Z,0.00
2022-08-16T01:34:53.675Z,0.00
2022-08-16T01:35:53.322Z,0.00
2022-08-16T01:36:58.311Z,0.00
2022-08-16T01:37:54.200Z,0.00
2022-08-16T01:38:57.251Z,0.00
2022-08-16T01:39:53.279Z,0.00
2022-08-16T01:40:52.191Z,0.00
2022-08-16T01:41:52.263Z,0.00
2022-08-16T01:42:52.180Z,0.00
2022-08-16T01:43:54.108Z,0.00
2022-08-16T01:44:52.243Z,0.00
2022-08-16T01:45:57.614Z,0.00
2022-08-16T01:46:53.111Z,0.00
2022-08-16T01:47:52.236Z,0.00
2022-08-16T01:48:52.090Z,0.00
2022-08-16T01:50:40.890Z,0.00
2022-08-16T01:51:08.759Z,0.00
2022-08-16T01:51:53.124Z,0.00
2022-08-16T01:52:52.047Z,0.00
2022-08-16T01:53:55.473Z,0.00
2022-08-16T01:54:52.013Z,0.00
2022-08-16T01:55:54.149Z,0.00
2022-08-16T01:56:51.996Z,0.00
2022-08-16T01:57:53.755Z,0.00
2022-08-16T01:58:51.975Z,0.00
2022-08-16T01:59:54.626Z,0.00
2022-08-16T02:00:51.931Z,0.00
2022-08-16T02:01:54.468Z,0.00
2022-08-16T02:02:53.896Z,0.00
2022-08-16T02:03:52.014Z,0.00
2022-08-16T02:04:54.838Z,0.00
2022-08-16T02:05:52.233Z,0.00
2022-08-16T02:06:51.854Z,0.00
2022-08-16T02:07:53.501Z,0.00
2022-08-16T02:08:51.826Z,0.00
2022-08-16T02:09:58.739Z,0.00
2022-08-16T02:10:52.807Z,0.00
2022-08-16T02:11:53.132Z,0.00
2022-08-16T02:12:56.165Z,0.00
2022-08-16T02:13:54.736Z,0.00
2022-08-16T02:14:51.757Z,0.00
2022-08-16T02:15:51.735Z,0.00
2022-08-16T02:16:51.726Z,0.00
2022-08-16T02:17:52.587Z,0.00
2022-08-16T02:18:51.707Z,0.00
2022-08-16T02:19:58.549Z,0.00
2022-08-16T02:20:53.551Z,0.00
2022-08-16T02:22:09.034Z,0.00
2022-08-16T02:22:52.646Z,0.00
2022-08-16T02:23:55.685Z,0.00
2022-08-16T02:24:51.881Z,0.00
2022-08-16T02:25:53.766Z,0.00
2022-08-16T02:26:51.598Z,0.00
2022-08-16T02:27:51.791Z,0.00
2022-08-16T02:28:51.585Z,0.00
2022-08-16T02:29:51.559Z,0.00
2022-08-16T02:30:55.933Z,0.00
2022-08-16T02:32:03.658Z,0.00
2022-08-16T02:32:52.530Z,0.00
2022-08-16T02:33:51.507Z,0.00
2022-08-16T02:34:51.490Z,0.00
2022-08-16T02:35:55.474Z,0.00
2022-08-16T02:36:52.460Z,0.00
2022-08-16T02:37:52.999Z,0.00
2022-08-16T02:38:51.444Z,0.00
2022-08-16T02:39:53.905Z,0.00
2022-08-16T02:40:51.409Z,0.00
2022-08-16T02:41:53.356Z,0.00
2022-08-16T02:42:51.472Z,0.00
2022-08-16T02:43:51.381Z,0.00
2022-08-16T02:44:51.370Z,0.00
2022-08-16T02:45:51.350Z,0.00
2022-08-16T02:46:53.934Z,0.00
2022-08-16T02:48:01.298Z,0.00
2022-08-16T02:48:52.301Z,0.00
2022-08-16T02:50:01.421Z,0.00
2022-08-16T02:51:05.807Z,0.00
2022-08-16T02:51:52.272Z,0.00
2022-08-16T02:52:51.260Z,0.00
2022-08-16T02:53:51.253Z,0.00
2022-08-16T02:54:55.144Z,0.00
2022-08-16T02:55:51.246Z,0.00
2022-08-16T02:56:51.204Z,0.00
2022-08-16T02:57:54.315Z,0.00
2022-08-16T02:58:51.172Z,0.00
2022-08-16T02:59:51.175Z,0.00
2022-08-16T03:00:51.188Z,0.00
2022-08-16T03:01:51.173Z,0.00
2022-08-16T03:02:55.941Z,0.00
2022-08-16T03:04:41.084Z,0.00
2022-08-16T03:04:52.755Z,0.00
2022-08-16T03:05:52.390Z,0.00
2022-08-16T03:06:51.083Z,0.00
2022-08-16T03:07:52.072Z,0.00
2022-08-16T03:08:53.153Z,0.00
2022-08-16T03:09:51.056Z,0.00
2022-08-16T03:10:51.024Z,0.00
2022-08-16T03:11:51.027Z,0.00
2022-08-16T03:12:55.139Z,0.00
2022-08-16T03:13:53.033Z,0.00
2022-08-16T03:14:50.964Z,0.00
2022-08-16T03:15:50.954Z,0.00
2022-08-16T03:16:59.392Z,0.00
2022-08-16T03:17:53.944Z,0.00
2022-08-16T03:18:50.994Z,0.00
2022-08-16T03:20:00.161Z,0.00
2022-08-16T03:20:55.471Z,0.00
2022-08-16T03:21:51.798Z,0.00
2022-08-16T03:22:50.872Z,0.00
2022-08-16T03:23:50.855Z,0.00
2022-08-16T03:24:50.845Z,0.00
2022-08-16T03:25:50.835Z,0.00
2022-08-16T03:26:50.824Z,0.00
2022-08-16T03:27:50.806Z,0.00
2022-08-16T03:28:50.795Z,0.00
2022-08-16T03:29:54.138Z,0.00
2022-08-16T03:30:50.764Z,0.00
2022-08-16T03:31:52.436Z,0.00
2022-08-16T03:32:51.638Z,0.00
2022-08-16T03:33:52.206Z,0.00
2022-08-16T03:34:50.715Z,0.00
2022-08-16T03:35:50.730Z,0.00
2022-08-16T03:36:51.686Z,0.00
2022-08-16T03:38:02.843Z,0.00
2022-08-16T03:38:51.656Z,0.00
2022-08-16T03:39:56.206Z,0.00
2022-08-16T03:40:51.707Z,0.00
2022-08-16T03:41:59.219Z,0.00
2022-08-16T03:43:19.012Z,0.00
2022-08-16T03:43:52.478Z,0.00
2022-08-16T03:44:50.588Z,0.00
2022-08-16T03:45:52.435Z,0.00
2022-08-16T03:46:50.572Z,0.00
2022-08-16T03:47:50.548Z,0.00
2022-08-16T03:48:51.539Z,0.00
2022-08-16T03:49:51.936Z,0.00
2022-08-16T03:50:59.780Z,0.00
2022-08-16T03:51:52.045Z,0.00
2022-08-16T03:52:50.494Z,0.00
2022-08-16T03:54:00.811Z,0.00
2022-08-16T03:54:57.396Z,0.00
2022-08-16T03:55:51.448Z,0.00
2022-08-16T03:56:57.293Z,0.00
2022-08-16T03:57:52.258Z,0.00
2022-08-16T03:58:50.906Z,0.00
2022-08-16T03:59:51.103Z,0.00
2022-08-16T04:00:56.765Z,5.62
2022-08-16T04:01:53.750Z,5.62
2022-08-16T04:02:50.457Z,5.62
2022-08-16T04:03:50.341Z,5.62
2022-08-16T04:04:50.334Z,5.62
2022-08-16T04:05:50.318Z,5.62
2022-08-16T04:06:50.305Z,5.62
2022-08-16T04:07:50.706Z,11.25
2022-08-16T04:08:50.271Z,11.25
2022-08-16T04:09:50.261Z,11.25
2022-08-16T04:10:51.762Z,11.25
2022-08-16T04:11:50.252Z,11.25
2022-08-16T04:12:53.274Z,16.88
2022-08-16T04:14:01.310Z,16.88
2022-08-16T04:14:51.252Z,16.88
2022-08-16T04:15:50.184Z,16.88
2022-08-16T04:16:50.183Z,22.50
2022-08-16T04:17:50.165Z,22.50
2022-08-16T04:18:50.158Z,22.50
2022-08-16T04:19:52.355Z,28.12
2022-08-16T04:20:50.126Z,28.12
2022-08-16T04:21:50.112Z,28.12
2022-08-16T04:22:50.103Z,28.12
2022-08-16T04:23:50.083Z,33.75
2022-08-16T04:24:54.848Z,33.75
2022-08-16T04:25:51.064Z,33.75
2022-08-16T04:26:50.044Z,39.38
2022-08-16T04:27:56.070Z,39.38
2022-08-16T04:28:54.562Z,45.00
2022-08-16T04:29:52.454Z,45.00
2022-08-16T04:30:50.551Z,45.00
2022-08-16T04:31:56.576Z,50.62
2022-08-16T04:32:51.086Z,50.62
2022-08-16T04:33:50.494Z,50.62
2022-08-16T04:34:49.956Z,56.25
2022-08-16T04:35:50.006Z,56.25
2022-08-16T04:36:49.927Z,56.25
2022-08-16T04:37:53.642Z,61.88
2022-08-16T04:38:50.220Z,61.88
2022-08-16T04:39:55.576Z,67.50
2022-08-16T04:40:50.929Z,67.50
2022-08-16T04:41:49.864Z,67.50
2022-08-16T04:42:51.068Z,67.50
2022-08-16T04:43:49.827Z,73.12
2022-08-16T04:44:53.865Z,73.12
2022-08-16T04:46:00.030Z,73.12
2022-08-16T04:47:01.361Z,78.75
2022-08-16T04:47:56.305Z,78.75
2022-08-16T04:48:50.766Z,84.38
2022-08-16T04:49:49.751Z,84.38
2022-08-16T04:50:49.737Z,84.38
2022-08-16T04:51:53.622Z,84.38
2022-08-16T04:52:50.716Z,90.00
2022-08-16T04:53:49.699Z,90.00
2022-08-16T04:54:49.699Z,90.00
2022-08-16T04:55:53.112Z,95.62
2022-08-16T04:56:49.949Z,95.62
2022-08-16T04:57:53.725Z,101.25
2022-08-16T04:58:49.637Z,101.25
2022-08-16T04:59:49.627Z,101.25
2022-08-16T05:00:49.609Z,106.88
2022-08-16T05:01:58.162Z,106.88
2022-08-16T05:02:54.925Z,106.88
2022-08-16T05:04:00.962Z,112.50
2022-08-16T05:04:50.549Z,112.50
2022-08-16T05:05:59.481Z,118.12
2022-08-16T05:06:50.600Z,118.12
2022-08-16T05:07:58.537Z,118.12
2022-08-16T05:08:50.510Z,118.12
2022-08-16T05:09:50.489Z,123.75
2022-08-16T05:10:49.479Z,123.75
2022-08-16T05:11:49.480Z,123.75
2022-08-16T05:12:49.596Z,129.38
2022-08-16T05:13:49.437Z,129.38
2022-08-16T05:15:02.474Z,129.38
2022-08-16T05:15:50.409Z,135.00
2022-08-16T05:16:52.147Z,135.00
2022-08-16T05:17:58.381Z,135.00
2022-08-16T05:18:50.371Z,140.62
2022-08-16T05:19:57.546Z,140.62
2022-08-16T05:21:01.808Z,140.62
2022-08-16T05:21:50.334Z,146.25
2022-08-16T05:22:49.480Z,146.25
2022-08-16T05:23:51.777Z,146.25
2022-08-16T05:24:50.301Z,151.88
2022-08-16T05:25:50.282Z,151.88
2022-08-16T05:26:51.325Z,151.88
2022-08-16T05:27:49.443Z,157.50
2022-08-16T05:28:55.478Z,157.50
2022-08-16T05:29:59.284Z,157.50
2022-08-16T05:30:50.577Z,163.12
2022-08-16T05:31:52.980Z,163.12
2022-08-16T05:32:49.357Z,163.12
2022-08-16T05:33:53.238Z,163.12
2022-08-16T05:34:50.173Z,163.12
2022-08-16T05:35:55.002Z,168.75
2022-08-16T05:36:51.158Z,168.75
2022-08-16T05:37:49.134Z,168.75
2022-08-16T05:38:49.125Z,168.75
2022-08-16T05:39:49.183Z,174.38
2022-08-16T05:40:59.536Z,174.38
2022-08-16T05:41:51.811Z,174.38
2022-08-16T05:42:49.530Z,180.00
2022-08-16T05:43:49.056Z,180.00
2022-08-16T05:44:49.321Z,180.00
2022-08-16T05:45:50.886Z,180.00
2022-08-16T05:46:49.021Z,180.00
2022-08-16T05:47:48.994Z,185.62
2022-08-16T05:48:55.208Z,185.62
2022-08-16T05:49:50.621Z,185.62
2022-08-16T05:50:52.957Z,185.62
2022-08-16T05:51:48.945Z,185.62
2022-08-16T05:52:49.037Z,191.25
2022-08-16T05:53:49.454Z,191.25
2022-08-16T05:54:58.547Z,191.25
2022-08-16T05:55:49.908Z,191.25
2022-08-16T05:56:49.988Z,196.88
2022-08-16T05:57:52.548Z,196.88
2022-08-16T05:58:48.855Z,196.88
2022-08-16T05:59:50.610Z,196.88
2022-08-16T06:00:49.964Z,202.50
2022-08-16T06:01:48.840Z,202.50
2022-08-16T06:02:48.950Z,202.50
2022-08-16T06:03:48.794Z,202.50
2022-08-16T06:04:48.787Z,202.50
2022-08-16T06:05:48.767Z,208.12
2022-08-16T06:06:56.795Z,208.12
2022-08-16T06:07:58.259Z,208.12
2022-08-16T06:08:49.731Z,208.12
2022-08-16T06:09:48.716Z,213.75
2022-08-16T06:11:05.696Z,213.75
2022-08-16T06:11:49.812Z,213.75
2022-08-16T06:12:52.662Z,219.38
2022-08-16T06:13:49.667Z,219.38
2022-08-16T06:14:48.649Z,219.38
2022-08-16T06:15:48.629Z,219.38
2022-08-16T06:16:50.791Z,225.00
2022-08-16T06:17:51.755Z,225.00
2022-08-16T06:18:48.598Z,225.00
2022-08-16T06:19:48.579Z,225.00
2022-08-16T06:20:55.472Z,225.00
2022-08-16T06:21:54.829Z,230.62
2022-08-16T06:23:03.003Z,230.62
2022-08-16T06:23:49.523Z,230.62
2022-08-16T06:24:55.195Z,236.25
2022-08-16T06:25:53.051Z,236.25
2022-08-16T06:26:57.564Z,236.25
2022-08-16T06:27:57.459Z,236.25
2022-08-16T06:28:49.553Z,241.88
2022-08-16T06:29:50.188Z,241.88
2022-08-16T06:30:48.447Z,241.88
2022-08-16T06:31:50.551Z,241.88
2022-08-16T06:32:48.790Z,247.50
2022-08-16T06:33:48.433Z,247.50
2022-08-16T06:34:55.297Z,247.50
2022-08-16T06:35:49.374Z,253.12
2022-08-16T06:36:48.627Z,253.12
2022-08-16T06:37:51.167Z,253.12
2022-08-16T06:38:56.127Z,258.75
2022-08-16T06:39:50.465Z,258.75
2022-08-16T06:40:49.317Z,258.75
2022-08-16T06:41:48.293Z,258.75
2022-08-16T06:42:48.490Z,258.75
2022-08-16T06:43:48.275Z,258.75
2022-08-16T06:44:48.415Z,258.75
2022-08-16T06:45:48.261Z,258.75
2022-08-16T06:46:50.506Z,258.75
2022-08-16T06:47:53.810Z,258.75
2022-08-16T06:48:51.585Z,258.75
2022-08-16T06:49:52.914Z,258.75
2022-08-16T06:50:49.188Z,264.38
2022-08-16T06:51:48.913Z,264.38
2022-08-16T06:52:59.865Z,264.38
2022-08-16T06:53:49.144Z,264.38
2022-08-16T06:54:49.946Z,264.38
2022-08-16T06:55:48.204Z,264.38
2022-08-16T06:56:52.572Z,270.00
2022-08-16T06:57:49.094Z,270.00
2022-08-16T06:58:48.087Z,270.00
2022-08-16T06:59:52.353Z,275.62
2022-08-16T07:00:49.117Z,275.62
2022-08-16T07:01:53.414Z,275.62
2022-08-16T07:02:51.775Z,275.62
2022-08-16T07:03:55.067Z,281.25
2022-08-16T07:04:48.999Z,281.25
2022-08-16T07:05:47.978Z,281.25
2022-08-16T07:06:48.128Z,281.25
2022-08-16T07:07:47.969Z,281.25
2022-08-16T07:08:47.960Z,286.88
2022-08-16T07:09:47.928Z,286.88
2022-08-16T07:10:48.032Z,286.88
2022-08-16T07:11:52.281Z,286.88
2022-08-16T07:13:04.188Z,286.88
2022-08-16T07:14:03.624Z,292.50
2022-08-16T07:14:48.871Z,292.50
2022-08-16T07:15:50.134Z,292.50
2022-08-16T07:16:47.839Z,292.50
2022-08-16T07:17:48.139Z,298.12
2022-08-16T07:19:01.369Z,298.12
2022-08-16T07:20:03.451Z,298.12
2022-08-16T07:20:48.884Z,298.12
2022-08-16T07:21:59.367Z,303.75
2022-08-16T07:22:52.495Z,303.75
2022-08-16T07:23:48.751Z,309.38
2022-08-16T07:24:48.750Z,309.38
2022-08-16T07:25:47.733Z,315.00
2022-08-16T07:26:48.488Z,315.00
2022-08-16T07:27:47.691Z,320.62
2022-08-16T07:28:47.772Z,320.62
2022-08-16T07:29:47.673Z,320.62
2022-08-16T07:30:47.713Z,326.25
2022-08-16T07:31:47.642Z,326.25
2022-08-16T07:32:51.366Z,331.88
2022-08-16T07:33:51.916Z,337.50
2022-08-16T07:34:49.076Z,343.12
2022-08-16T07:35:49.718Z,348.75
2022-08-16T07:36:57.872Z,343.12
2022-08-16T07:37:48.563Z,343.12
2022-08-16T07:38:47.568Z,343.12
2022-08-16T07:39:47.883Z,343.12
2022-08-16T07:40:59.478Z,343.12
2022-08-16T07:41:48.514Z,343.12
2022-08-16T07:42:47.757Z,343.12
2022-08-16T07:43:47.720Z,337.50
2022-08-16T07:44:50.652Z,337.50
2022-08-16T07:45:52.908Z,337.50
2022-08-16T07:46:48.460Z,343.12
2022-08-16T07:47:51.195Z,343.12
2022-08-16T07:48:47.616Z,343.12
2022-08-16T07:49:53.136Z,343.12
2022-08-16T07:50:55.607Z,348.75
2022-08-16T07:51:48.400Z,348.75
2022-08-16T07:52:47.376Z,354.38
2022-08-16T07:53:47.376Z,354.38
2022-08-16T07:54:49.087Z,360.00
2022-08-16T07:55:48.487Z,360.00
2022-08-16T07:56:47.327Z,365.62
2022-08-16T07:57:59.965Z,365.62
2022-08-16T07:58:48.311Z,360.00
2022-08-16T07:59:48.287Z,360.00
2022-08-16T08:00:47.321Z,360.00
2022-08-16T08:01:47.613Z,360.00
2022-08-16T08:02:48.327Z,360.00
2022-08-16T08:03:49.005Z,360.00
2022-08-16T08:04:47.231Z,360.00
2022-08-16T08:05:47.208Z,360.00
2022-08-16T08:06:47.211Z,360.00
2022-08-16T08:07:47.180Z,365.62
2022-08-16T08:08:51.412Z,365.62
2022-08-16T08:09:48.162Z,360.00
2022-08-16T08:10:47.151Z,365.62
2022-08-16T08:11:59.804Z,371.25
2022-08-16T08:12:48.530Z,376.88
2022-08-16T08:13:47.121Z,376.88
2022-08-16T08:14:47.107Z,382.50
2022-08-16T08:15:52.915Z,382.50
2022-08-16T08:16:48.083Z,382.50
2022-08-16T08:17:47.060Z,382.50
2022-08-16T08:18:50.374Z,388.12
2022-08-16T08:19:53.201Z,388.12
2022-08-16T08:20:59.239Z,393.75
2022-08-16T08:22:01.305Z,405.00
2022-08-16T08:22:48.063Z,410.62
2022-08-16T08:23:47.054Z,410.62
2022-08-16T08:24:46.983Z,410.62
2022-08-16T08:25:54.121Z,410.62
2022-08-16T08:26:50.033Z,405.00
2022-08-16T08:27:46.933Z,405.00
2022-08-16T08:28:46.925Z,399.38
2022-08-16T08:29:46.915Z,399.38
2022-08-16T08:30:51.594Z,399.38
2022-08-16T08:31:47.887Z,399.38
2022-08-16T08:32:59.837Z,399.38
2022-08-16T08:33:51.713Z,399.38
2022-08-16T08:34:46.865Z,399.38
2022-08-16T08:35:46.845Z,405.00
2022-08-16T08:36:46.820Z,410.62
2022-08-16T08:37:55.280Z,410.62
2022-08-16T08:38:47.786Z,410.62
2022-08-16T08:39:54.966Z,416.25
2022-08-16T08:40:47.768Z,416.25
2022-08-16T08:41:49.614Z,421.88
2022-08-16T08:42:48.082Z,421.88
2022-08-16T08:43:46.728Z,421.88
2022-08-16T08:44:46.828Z,421.88
2022-08-16T08:45:49.349Z,421.88
2022-08-16T08:47:00.479Z,421.88
2022-08-16T08:47:54.104Z,421.88
2022-08-16T08:48:59.454Z,421.88
2022-08-16T08:49:55.378Z,421.88
2022-08-16T08:50:50.014Z,427.50
2022-08-16T08:51:46.640Z,427.50
2022-08-16T08:52:47.860Z,427.50
2022-08-16T08:53:46.609Z,427.50
2022-08-16T08:54:47.659Z,427.50
2022-08-16T08:55:46.579Z,427.50
2022-08-16T08:56:47.559Z,427.50
2022-08-16T08:57:46.564Z,433.12
2022-08-16T08:58:54.835Z,433.12
2022-08-16T08:59:47.528Z,433.12
2022-08-16T09:00:50.212Z,433.12
2022-08-16T09:01:57.263Z,433.12
2022-08-16T09:02:51.802Z,433.12
2022-08-16T09:03:46.594Z,433.12
2022-08-16T09:04:47.729Z,433.12
2022-08-16T09:05:51.401Z,433.12
2022-08-16T09:06:46.446Z,438.75
2022-08-16T09:08:00.823Z,438.75
2022-08-16T09:08:47.619Z,438.75
2022-08-16T09:09:46.403Z,438.75
2022-08-16T09:10:46.381Z,438.75
2022-08-16T09:11:53.408Z,438.75
2022-08-16T09:12:47.645Z,438.75
2022-08-16T09:13:47.359Z,438.75
2022-08-16T09:14:49.675Z,444.38
2022-08-16T09:15:47.335Z,444.38
2022-08-16T09:17:01.242Z,450.00
2022-08-16T09:17:51.984Z,455.62
2022-08-16T09:18:50.635Z,455.62
2022-08-16T09:19:49.324Z,455.62
2022-08-16T09:20:58.465Z,455.62
2022-08-16T09:21:47.258Z,455.62
2022-08-16T09:22:52.383Z,455.62
2022-08-16T09:23:47.227Z,461.25
2022-08-16T09:24:52.064Z,461.25
2022-08-16T09:25:47.200Z,461.25
2022-08-16T09:26:46.807Z,461.25
2022-08-16T09:27:57.719Z,466.88
2022-08-16T09:29:16.242Z,472.50
2022-08-16T09:29:47.138Z,472.50
2022-08-16T09:30:47.126Z,472.50
2022-08-16T09:31:46.130Z,478.12
2022-08-16T09:32:46.935Z,478.12
2022-08-16T09:33:46.088Z,478.12
2022-08-16T09:34:47.069Z,483.75
2022-08-16T09:35:46.070Z,483.75
2022-08-16T09:36:47.128Z,483.75
2022-08-16T09:37:46.039Z,483.75
2022-08-16T09:38:47.032Z,489.38
2022-08-16T09:39:50.125Z,489.38
2022-08-16T09:40:46.088Z,495.00
2022-08-16T09:41:53.736Z,495.00
2022-08-16T09:42:56.541Z,500.62
2022-08-16T09:43:59.862Z,500.62
2022-08-16T09:45:10.747Z,506.25
2022-08-16T09:45:46.943Z,506.25
2022-08-16T09:46:49.419Z,506.25
2022-08-16T09:47:56.488Z,506.25
2022-08-16T09:48:51.080Z,506.25
2022-08-16T09:49:45.899Z,506.25
2022-08-16T09:50:46.874Z,511.88
2022-08-16T09:51:45.869Z,517.50
2022-08-16T09:52:47.918Z,517.50
2022-08-16T09:53:45.842Z,517.50
2022-08-16T09:54:46.929Z,523.12
2022-08-16T09:55:45.818Z,540.00
2022-08-16T09:56:52.413Z,568.12
2022-08-16T09:57:53.019Z,585.00
2022-08-16T09:59:04.893Z,601.88
2022-08-16T09:59:49.303Z,646.88
2022-08-16T10:00:46.827Z,1963.12
2022-08-16T10:01:45.989Z,3780.00
2022-08-16T10:02:48.262Z,4376.25
2022-08-16T10:04:01.189Z,4961.25
2022-08-16T10:04:54.802Z,5394.38
2022-08-16T10:05:46.687Z,5602.50
2022-08-16T10:06:46.307Z,5242.50
2022-08-16T10:07:45.665Z,4623.75
2022-08-16T10:09:04.378Z,4275.00
2022-08-16T10:09:55.714Z,4044.38
2022-08-16T10:10:46.617Z,4066.88
2022-08-16T10:11:49.961Z,4511.25
2022-08-16T10:12:46.627Z,5130.00
2022-08-16T10:13:46.607Z,5518.12
2022-08-16T10:14:45.952Z,5478.75
2022-08-16T10:15:47.965Z,5591.25
2022-08-16T10:16:48.768Z,5810.62
2022-08-16T10:18:00.051Z,5208.75
2022-08-16T10:19:02.211Z,4533.75
2022-08-16T10:19:46.519Z,4511.25
2022-08-16T10:20:45.498Z,4516.88
2022-08-16T10:21:45.501Z,4381.88
2022-08-16T10:22:46.481Z,4370.62
2022-08-16T10:23:45.476Z,4651.88
2022-08-16T10:24:56.113Z,4702.50
2022-08-16T10:27:19.833Z,5186.25
2022-08-16T10:27:20.421Z,4820.62
2022-08-16T10:27:50.676Z,5287.50
2022-08-16T10:28:46.402Z,5310.00
2022-08-16T10:29:59.910Z,5456.25
2022-08-16T10:30:46.372Z,5540.62
2022-08-16T10:31:53.892Z,5647.50
2022-08-16T10:32:46.355Z,5293.12
2022-08-16T10:33:45.345Z,4826.25
2022-08-16T10:34:45.343Z,4995.00
2022-08-16T10:35:46.802Z,5647.50
2022-08-16T10:36:45.307Z,5658.75
2022-08-16T10:37:45.303Z,4938.75
2022-08-16T10:38:45.295Z,4798.12
2022-08-16T10:39:45.335Z,5310.00
2022-08-16T10:40:45.759Z,5400.00
2022-08-16T10:41:45.296Z,5495.62
2022-08-16T10:42:45.243Z,5625.00
2022-08-16T10:43:45.225Z,5495.62
2022-08-16T10:44:53.397Z,5557.50
2022-08-16T10:45:46.216Z,5506.88
2022-08-16T10:46:46.188Z,5428.12
2022-08-16T10:47:45.178Z,5591.25
2022-08-16T10:48:47.175Z,5641.88
2022-08-16T10:49:45.159Z,5585.62
2022-08-16T10:50:45.148Z,5636.25
2022-08-16T10:52:01.175Z,5208.75
2022-08-16T10:52:46.132Z,4927.50
2022-08-16T10:53:45.130Z,4955.62
2022-08-16T10:55:40.233Z,4747.50
2022-08-16T10:55:46.285Z,4612.50
2022-08-16T10:56:55.337Z,4657.50
2022-08-16T10:57:46.113Z,4528.12
2022-08-16T10:58:45.050Z,4404.38
2022-08-16T10:59:57.644Z,4488.75
2022-08-16T11:00:46.502Z,4770.00
2022-08-16T11:02:21.696Z,5085.00
2022-08-16T11:02:59.579Z,5017.50
2022-08-16T11:03:46.439Z,5118.75
2022-08-16T11:06:03.281Z,5484.38
2022-08-16T11:07:06.549Z,5259.38
2022-08-16T11:07:52.622Z,4989.38
2022-08-16T11:08:45.931Z,4916.25
2022-08-16T11:09:44.931Z,4781.25
2022-08-16T11:11:06.797Z,4736.25
2022-08-16T11:12:45.900Z,4432.50
2022-08-16T11:14:06.076Z,4359.38
2022-08-16T11:15:52.034Z,4522.50
2022-08-16T11:17:02.123Z,4674.38
2022-08-16T11:17:46.127Z,4978.12
2022-08-16T11:18:54.743Z,4950.00
2022-08-16T11:20:41.567Z,5175.00
2022-08-16T11:20:49.185Z,5478.75
2022-08-16T11:22:48.220Z,4786.88
2022-08-16T11:23:57.503Z,4252.50
2022-08-16T11:24:46.073Z,4173.75
2022-08-16T11:26:45.987Z,4770.00
2022-08-16T11:27:45.750Z,4865.62
2022-08-16T11:29:45.699Z,5203.12
2022-08-16T11:30:44.679Z,5506.88
2022-08-16T11:31:45.944Z,5287.50
2022-08-16T11:32:45.650Z,4668.75
2022-08-16T11:33:52.612Z,4246.88
2022-08-16T11:35:09.762Z,4218.75
2022-08-16T11:36:22.437Z,4145.62
2022-08-16T11:36:53.961Z,4635.00
2022-08-16T11:38:52.062Z,5360.62
2022-08-16T11:39:45.638Z,5203.12
2022-08-16T11:40:44.749Z,4618.12
2022-08-16T11:41:44.554Z,4156.88
2022-08-16T11:42:45.535Z,3982.50
2022-08-16T11:43:44.536Z,4359.38
2022-08-16T11:44:56.206Z,5028.75
2022-08-16T11:45:53.641Z,5343.75
2022-08-16T11:46:46.611Z,5130.00
2022-08-16T11:47:44.526Z,4578.75
2022-08-16T11:48:44.474Z,3948.75
2022-08-16T11:49:44.548Z,3960.00
2022-08-16T11:50:44.455Z,4730.62
2022-08-16T11:51:44.512Z,5360.62
2022-08-16T11:52:46.521Z,5141.25
2022-08-16T11:53:44.426Z,4573.12
2022-08-16T11:54:44.397Z,4190.62
2022-08-16T11:55:44.428Z,4567.50
2022-08-16T11:56:56.493Z,5433.75
2022-08-16T11:57:45.410Z,5270.62
2022-08-16T11:58:44.359Z,4606.88
2022-08-16T11:59:45.347Z,4606.88
2022-08-16T12:00:51.897Z,5079.38
2022-08-16T12:01:59.069Z,5135.62
2022-08-16T12:02:45.865Z,4708.12
2022-08-16T12:03:44.367Z,4888.12
2022-08-16T12:04:44.300Z,4955.62
2022-08-16T12:05:44.280Z,4601.25
2022-08-16T12:06:44.270Z,4320.00
2022-08-16T12:07:44.307Z,4460.62
2022-08-16T12:08:44.311Z,4539.38
2022-08-16T12:09:44.241Z,4578.75
2022-08-16T12:10:44.235Z,4725.00
2022-08-16T12:11:44.224Z,4725.00
2022-08-16T12:12:44.202Z,4651.88
2022-08-16T12:13:44.192Z,4792.50
2022-08-16T12:14:44.183Z,4578.75
2022-08-16T12:15:44.184Z,3633.75
2022-08-16T12:16:48.734Z,4483.12
2022-08-16T12:17:45.157Z,4601.25
2022-08-16T12:18:44.180Z,4680.00
2022-08-16T12:19:44.267Z,4578.75
2022-08-16T12:20:44.116Z,4691.25
2022-08-16T12:21:59.325Z,4528.12
2022-08-16T12:22:45.142Z,4623.75
2022-08-16T12:23:44.083Z,4893.75
2022-08-16T12:24:44.075Z,4758.75
2022-08-16T12:25:44.056Z,4719.38
2022-08-16T12:26:44.051Z,4719.38
2022-08-16T12:27:44.038Z,4573.12
2022-08-16T12:28:54.475Z,4713.75
2022-08-16T12:29:45.108Z,4674.38
2022-08-16T12:30:44.008Z,1192.50
2022-08-16T12:32:00.457Z,1496.25
2022-08-16T12:32:44.979Z,3864.38
2022-08-16T12:33:45.190Z,2334.38
2022-08-16T12:34:48.022Z,1040.62
2022-08-16T12:35:44.950Z,1890.00
2022-08-16T12:36:43.938Z,4640.62
2022-08-16T12:37:43.930Z,4539.38
2022-08-16T12:38:48.252Z,4747.50
2022-08-16T12:39:50.794Z,4713.75
2022-08-16T12:40:45.193Z,4443.75
2022-08-16T12:41:45.080Z,4629.38
2022-08-16T12:42:52.974Z,4831.88
2022-08-16T12:43:45.117Z,4753.12
2022-08-16T12:44:43.893Z,4618.12
2022-08-16T12:45:43.833Z,4443.75
2022-08-16T12:46:43.826Z,4365.00